SJX870 RCTP-ROAH
Flight info
| Callsign | SJX870 |
|---|---|
| Flight time | N/A |
| Altitude | 29000 |
| Route | KUDOS1B KUDOS R595 SEDKU Y573 MJC Y57 VELNO |
| Aircraft | A359/H-SDE2E3GHIJ3J4J5LM1ORWXY/LB1D1 |
Departure
| Time | N/A |
|---|---|
| Airport | Taiwan Taoyuan International Airport (RCTP) |
Arrival
| Time | 2026-04-27 11:08 |
|---|---|
| Airport | Naha International Airport (ROAH) |
| Time | Latitude | Longitude | Altitude | Speed | Heading |
|---|---|---|---|---|---|
| 2026-04-27 10:27 | 25.03089 | 123.05780 | 28388 ft | 500 kts | 98° |
| 2026-04-27 10:27 | 25.02706 | 123.09597 | 28604 ft | 502 kts | 98° |
| 2026-04-27 10:28 | 25.02321 | 123.13437 | 28862 ft | 504 kts | 98° |
| 2026-04-27 10:28 | 25.01932 | 123.17292 | 28992 ft | 511 kts | 98° |
| 2026-04-27 10:28 | 25.01534 | 123.21230 | 29009 ft | 522 kts | 98° |
| 2026-04-27 10:28 | 25.01129 | 123.25213 | 29005 ft | 523 kts | 98° |
| 2026-04-27 10:29 | 25.00323 | 123.33126 | 29000 ft | 522 kts | 98° |
| 2026-04-27 10:29 | 24.99508 | 123.41089 | 29005 ft | 522 kts | 98° |
| 2026-04-27 10:30 | 24.98688 | 123.49049 | 29006 ft | 522 kts | 98° |
| 2026-04-27 10:30 | 24.97864 | 123.57003 | 29007 ft | 522 kts | 98° |
| 2026-04-27 10:31 | 24.97035 | 123.64959 | 29008 ft | 522 kts | 98° |
| 2026-04-27 10:31 | 24.96202 | 123.72915 | 29007 ft | 524 kts | 98° |
| 2026-04-27 10:32 | 24.95363 | 123.80882 | 29021 ft | 528 kts | 98° |
| 2026-04-27 10:32 | 24.94513 | 123.88923 | 29012 ft | 528 kts | 98° |
| 2026-04-27 10:33 | 24.93660 | 123.96955 | 29006 ft | 528 kts | 98° |
| 2026-04-27 10:33 | 24.92790 | 124.04955 | 29017 ft | 525 kts | 99° |
| 2026-04-27 10:34 | 24.91851 | 124.12927 | 29011 ft | 524 kts | 99° |
| 2026-04-27 10:34 | 24.90899 | 124.20896 | 29013 ft | 525 kts | 99° |
| 2026-04-27 10:35 | 24.89954 | 124.28863 | 29015 ft | 524 kts | 99° |
| 2026-04-27 10:35 | 24.89010 | 124.36830 | 29015 ft | 524 kts | 99° |
| 2026-04-27 10:36 | 24.88065 | 124.44787 | 29013 ft | 524 kts | 99° |
| 2026-04-27 10:36 | 24.87113 | 124.52757 | 29008 ft | 525 kts | 99° |
| 2026-04-27 10:37 | 24.86155 | 124.60737 | 29005 ft | 525 kts | 99° |
| 2026-04-27 10:37 | 24.85199 | 124.68665 | 29003 ft | 525 kts | 99° |
| 2026-04-27 10:38 | 24.84233 | 124.76639 | 29015 ft | 525 kts | 99° |
| 2026-04-27 10:38 | 24.83263 | 124.84611 | 29010 ft | 525 kts | 99° |
| 2026-04-27 10:39 | 24.82293 | 124.92593 | 29003 ft | 526 kts | 99° |
| 2026-04-27 10:39 | 24.81313 | 125.00566 | 28992 ft | 526 kts | 99° |
| 2026-04-27 10:40 | 24.80327 | 125.08534 | 28993 ft | 525 kts | 99° |
| 2026-04-27 10:40 | 24.79341 | 125.16493 | 28993 ft | 525 kts | 99° |
| 2026-04-27 10:41 | 24.78419 | 125.24464 | 28989 ft | 526 kts | 94° |
| 2026-04-27 10:41 | 24.78611 | 125.28485 | 28994 ft | 528 kts | 81° |
| 2026-04-27 10:41 | 24.79659 | 125.32339 | 28993 ft | 527 kts | 66° |
| 2026-04-27 10:42 | 24.83178 | 125.39344 | 28994 ft | 526 kts | 57° |
| 2026-04-27 10:42 | 24.87127 | 125.46130 | 29004 ft | 526 kts | 56° |
| 2026-04-27 10:43 | 24.91078 | 125.52910 | 29011 ft | 526 kts | 57° |
| 2026-04-27 10:43 | 24.94971 | 125.59733 | 29022 ft | 526 kts | 57° |
| 2026-04-27 10:44 | 24.98834 | 125.66579 | 29028 ft | 526 kts | 57° |
| 2026-04-27 10:44 | 25.02694 | 125.73441 | 29023 ft | 527 kts | 57° |
| 2026-04-27 10:45 | 25.06559 | 125.80316 | 29029 ft | 527 kts | 57° |
| 2026-04-27 10:45 | 25.10417 | 125.87185 | 29029 ft | 526 kts | 57° |
| 2026-04-27 10:46 | 25.14273 | 125.94058 | 29029 ft | 527 kts | 57° |
| 2026-04-27 10:46 | 25.16192 | 125.97484 | 28872 ft | 520 kts | 57° |
| 2026-04-27 10:46 | 25.17965 | 126.00652 | 28614 ft | 508 kts | 57° |
| 2026-04-27 10:47 | 25.19798 | 126.03931 | 28381 ft | 496 kts | 57° |
| 2026-04-27 10:47 | 25.21601 | 126.07156 | 28125 ft | 493 kts | 57° |
| 2026-04-27 10:47 | 25.23400 | 126.10376 | 27864 ft | 492 kts | 57° |
| 2026-04-27 10:47 | 25.25163 | 126.13531 | 27526 ft | 486 kts | 57° |
| 2026-04-27 10:48 | 25.26927 | 126.16693 | 27038 ft | 481 kts | 57° |
| 2026-04-27 10:48 | 25.28676 | 126.19829 | 26492 ft | 477 kts | 57° |
| 2026-04-27 10:48 | 25.30410 | 126.22940 | 25973 ft | 474 kts | 57° |
| 2026-04-27 10:48 | 25.32130 | 126.26028 | 25415 ft | 470 kts | 57° |
| 2026-04-27 10:49 | 25.33838 | 126.29098 | 24870 ft | 467 kts | 57° |
| 2026-04-27 10:49 | 25.35535 | 126.32149 | 24323 ft | 464 kts | 57° |
| 2026-04-27 10:49 | 25.37219 | 126.35178 | 23774 ft | 462 kts | 58° |
| 2026-04-27 10:49 | 25.38896 | 126.38197 | 23164 ft | 459 kts | 58° |
| 2026-04-27 10:50 | 25.40558 | 126.41191 | 22594 ft | 454 kts | 58° |
| 2026-04-27 10:50 | 25.42201 | 126.44153 | 22050 ft | 449 kts | 58° |
| 2026-04-27 10:50 | 25.43830 | 126.47091 | 21479 ft | 445 kts | 58° |
| 2026-04-27 10:50 | 25.45441 | 126.50000 | 20946 ft | 441 kts | 58° |
| 2026-04-27 10:51 | 25.47034 | 126.52876 | 20399 ft | 437 kts | 58° |
| 2026-04-27 10:51 | 25.48613 | 126.55735 | 19858 ft | 433 kts | 58° |
| 2026-04-27 10:51 | 25.50172 | 126.58568 | 19314 ft | 430 kts | 58° |
| 2026-04-27 10:51 | 25.51720 | 126.61385 | 18758 ft | 427 kts | 58° |
| 2026-04-27 10:52 | 25.53258 | 126.64185 | 18190 ft | 424 kts | 58° |
| 2026-04-27 10:52 | 25.54781 | 126.66961 | 17635 ft | 420 kts | 58° |
| 2026-04-27 10:52 | 25.56276 | 126.69686 | 17093 ft | 415 kts | 58° |
| 2026-04-27 10:52 | 25.57766 | 126.72404 | 16561 ft | 411 kts | 58° |
| 2026-04-27 10:53 | 25.59241 | 126.75097 | 16032 ft | 407 kts | 58° |
| 2026-04-27 10:53 | 25.62145 | 126.80401 | 14991 ft | 399 kts | 58° |
| 2026-04-27 10:53 | 25.63577 | 126.83018 | 14455 ft | 395 kts | 58° |
| 2026-04-27 10:54 | 25.64993 | 126.85609 | 13954 ft | 392 kts | 57° |
| 2026-04-27 10:54 | 25.66400 | 126.88183 | 13369 ft | 388 kts | 57° |
| 2026-04-27 10:54 | 25.67789 | 126.90725 | 12855 ft | 383 kts | 57° |
| 2026-04-27 10:54 | 25.69160 | 126.93240 | 12350 ft | 378 kts | 58° |
| 2026-04-27 10:55 | 25.70508 | 126.95714 | 11861 ft | 373 kts | 57° |
| 2026-04-27 10:55 | 25.71843 | 126.98160 | 11352 ft | 368 kts | 58° |
| 2026-04-27 10:55 | 25.73146 | 127.00550 | 11130 ft | 355 kts | 58° |
| 2026-04-27 10:55 | 25.74396 | 127.02845 | 10999 ft | 339 kts | 58° |
| 2026-04-27 10:56 | 25.75589 | 127.05037 | 10877 ft | 325 kts | 58° |
| 2026-04-27 10:56 | 25.76734 | 127.07142 | 10746 ft | 312 kts | 57° |
| 2026-04-27 10:56 | 25.77836 | 127.09167 | 10546 ft | 303 kts | 58° |
| 2026-04-27 10:56 | 25.78917 | 127.11154 | 10219 ft | 299 kts | 58° |
| 2026-04-27 10:57 | 25.80001 | 127.13147 | 10042 ft | 304 kts | 58° |
| 2026-04-27 10:57 | 25.81080 | 127.15131 | 9752 ft | 303 kts | 58° |
| 2026-04-27 10:57 | 25.82171 | 127.17139 | 9277 ft | 303 kts | 58° |
| 2026-04-27 10:57 | 25.83257 | 127.19140 | 8927 ft | 301 kts | 58° |
| 2026-04-27 10:58 | 25.84333 | 127.21124 | 8603 ft | 299 kts | 58° |
| 2026-04-27 10:58 | 25.85404 | 127.23098 | 8304 ft | 298 kts | 58° |
| 2026-04-27 10:58 | 25.86469 | 127.25063 | 7990 ft | 296 kts | 58° |
| 2026-04-27 10:58 | 25.87528 | 127.27017 | 7683 ft | 294 kts | 58° |
| 2026-04-27 10:59 | 25.88579 | 127.28957 | 7374 ft | 292 kts | 58° |
| 2026-04-27 10:59 | 25.89555 | 127.30932 | 7067 ft | 292 kts | 66° |
| 2026-04-27 10:59 | 25.90182 | 127.33074 | 6768 ft | 291 kts | 75° |
| 2026-04-27 11:00 | 25.91181 | 127.37396 | 6149 ft | 287 kts | 75° |
| 2026-04-27 11:00 | 25.91673 | 127.39535 | 5834 ft | 286 kts | 75° |
| 2026-04-27 11:00 | 25.92168 | 127.41669 | 5535 ft | 284 kts | 75° |
| 2026-04-27 11:00 | 25.92652 | 127.43754 | 5227 ft | 280 kts | 74° |
| 2026-04-27 11:01 | 25.93139 | 127.45843 | 4927 ft | 278 kts | 74° |
| 2026-04-27 11:01 | 25.93622 | 127.47917 | 4611 ft | 276 kts | 74° |
| 2026-04-27 11:01 | 25.94101 | 127.49971 | 4305 ft | 273 kts | 74° |
| 2026-04-27 11:01 | 25.94574 | 127.52003 | 4021 ft | 270 kts | 74° |
| 2026-04-27 11:02 | 25.95042 | 127.54012 | 3736 ft | 267 kts | 74° |
| 2026-04-27 11:02 | 25.95505 | 127.56001 | 3424 ft | 264 kts | 74° |
| 2026-04-27 11:02 | 25.96053 | 127.57938 | 3110 ft | 261 kts | 64° |
| 2026-04-27 11:02 | 25.97141 | 127.59508 | 2856 ft | 253 kts | 37° |
| 2026-04-27 11:03 | 25.98105 | 127.60203 | 2754 ft | 245 kts | 29° |
| 2026-04-27 11:03 | 25.99581 | 127.61064 | 2612 ft | 234 kts | 27° |
| 2026-04-27 11:03 | 26.01004 | 127.61865 | 2453 ft | 224 kts | 27° |
| 2026-04-27 11:03 | 26.02345 | 127.62620 | 2303 ft | 207 kts | 26° |
| 2026-04-27 11:04 | 26.03630 | 127.63234 | 2206 ft | 195 kts | 20° |
| 2026-04-27 11:04 | 26.05263 | 127.63712 | 2156 ft | 172 kts | 10° |
| 2026-04-27 11:04 | 26.06037 | 127.63796 | 2101 ft | 160 kts | 358° |
| 2026-04-27 11:04 | 26.07108 | 127.63696 | 2057 ft | 151 kts | 359° |
| 2026-04-27 11:05 | 26.08135 | 127.63703 | 1911 ft | 143 kts | 4° |
| 2026-04-27 11:05 | 26.09108 | 127.63724 | 1715 ft | 136 kts | 1° |
| 2026-04-27 11:05 | 26.10050 | 127.63701 | 1545 ft | 135 kts | 360° |
| 2026-04-27 11:05 | 26.10992 | 127.63673 | 1370 ft | 136 kts | 359° |
| 2026-04-27 11:06 | 26.11935 | 127.63625 | 1180 ft | 136 kts | 359° |
| 2026-04-27 11:06 | 26.12877 | 127.63583 | 1001 ft | 135 kts | 359° |
| 2026-04-27 11:06 | 26.13800 | 127.63543 | 822 ft | 134 kts | 359° |
| 2026-04-27 11:06 | 26.14739 | 127.63506 | 676 ft | 136 kts | 359° |
| 2026-04-27 11:07 | 26.15680 | 127.63466 | 501 ft | 135 kts | 359° |
| 2026-04-27 11:07 | 26.16612 | 127.63417 | 323 ft | 134 kts | 358° |
| 2026-04-27 11:07 | 26.17546 | 127.63369 | 147 ft | 133 kts | 359° |
| 2026-04-27 11:07 | 26.18468 | 127.63329 | 27 ft | 130 kts | 357° |
| 2026-04-27 11:08 | 26.19241 | 127.63290 | 24 ft | 73 kts | 357° |
| 2026-04-27 11:08 | 26.19524 | 127.63279 | 25 ft | 32 kts | 1° |
| 2026-04-27 11:08 | 26.19732 | 127.63334 | 29 ft | 30 kts | 24° |
| 2026-04-27 11:08 | 26.19903 | 127.63432 | 28 ft | 21 kts | 25° |
| 2026-04-27 11:09 | 26.20049 | 127.63444 | 26 ft | 22 kts | 358° |
| 2026-04-27 11:09 | 26.20187 | 127.63437 | 25 ft | 16 kts | 358° |
| 2026-04-27 11:09 | 26.20266 | 127.63439 | 24 ft | 10 kts | 17° |
| 2026-04-27 11:09 | 26.20300 | 127.63501 | 25 ft | 11 kts | 81° |
| 2026-04-27 11:10 | 26.20305 | 127.63599 | 25 ft | 15 kts | 87° |
| 2026-04-27 11:10 | 26.20310 | 127.63725 | 25 ft | 19 kts | 88° |
| 2026-04-27 11:10 | 26.20316 | 127.63886 | 26 ft | 22 kts | 87° |
| 2026-04-27 11:10 | 26.20323 | 127.64066 | 27 ft | 24 kts | 88° |
| 2026-04-27 11:11 | 26.20329 | 127.64241 | 24 ft | 11 kts | 87° |
| 2026-04-27 11:11 | 26.20373 | 127.64308 | 26 ft | 12 kts | 19° |
| 2026-04-27 11:11 | 26.20463 | 127.64311 | 26 ft | 14 kts | 358° |
| 2026-04-27 11:11 | 26.20570 | 127.64315 | 28 ft | 17 kts | 10° |
| 2026-04-27 11:12 | 26.20691 | 127.64342 | 26 ft | 19 kts | 14° |
| 2026-04-27 11:12 | 26.20824 | 127.64377 | 23 ft | 18 kts | 13° |
| 2026-04-27 11:12 | 26.20916 | 127.64443 | 26 ft | 16 kts | 63° |
| 2026-04-27 11:12 | 26.20903 | 127.64565 | 26 ft | 17 kts | 99° |
| 2026-04-27 11:13 | 26.20905 | 127.64710 | 25 ft | 20 kts | 87° |
| 2026-04-27 11:13 | 26.20916 | 127.64834 | 26 ft | 12 kts | 81° |
| 2026-04-27 11:13 | 26.20968 | 127.64882 | 31 ft | 5 kts | 6° |
| 2026-04-27 11:13 | 26.20992 | 127.64888 | 26 ft | 4 kts | 24° |
| 2026-04-27 11:14 | 26.21002 | 127.64910 | 27 ft | 3 kts | 72° |
| 2026-04-27 11:14 | 26.21005 | 127.64946 | 27 ft | 6 kts | 88° |
| 2026-04-27 11:14 | 26.21006 | 127.64972 | 28 ft | 0 kts | 87° |